Chalkyitsik, Alaska
Current Conditions -  °F | °C
As of 6:56 PM on Thursday 27 Nov 2014 (Local Time) from PFYU Reporting Station
Overcast Overcast  
Wind Chill: -18°   Ceiling: 200
Heat Index: -18°   Visibility: 0.5mi
Dew Point: -22°   Wind: 0mph
Humidity: 84%   Direction: NA
Pressure: 30.44"   Gusts: NA
Location:  66.65°N, 143.72°W
Report Text: PFYU 280356Z 00000KT 1/2SM OVC002 M28/M30 A3044 RMK AO1
Loading
Personal Weather Stations






























Interactive Weather Map New forecast layout! Learn more

10-Day Weather Forecast

Advertisements
Track Severe Weather on mobile